sensor_id;sensor_type;location;lat;lon;timestamp;pressure;altitude;pressure_sealevel;temperature;humidity
18985;BME280;9626;52.552;13.436;2023-03-15T00:02:07;100082.22;;;1.56;100.00
18985;BME280;9626;52.552;13.436;2023-03-15T00:04:34;100088.28;;;1.54;100.00
18985;BME280;9626;52.552;13.436;2023-03-15T00:07:00;100094.28;;;1.42;100.00
18985;BME280;9626;52.552;13.436;2023-03-15T00:09:26;100095.13;;;1.38;100.00
18985;BME280;9626;52.552;13.436;2023-03-15T00:11:52;100112.44;;;1.31;100.00
18985;BME280;9626;52.552;13.436;2023-03-15T00:14:21;100101.13;;;1.27;100.00
18985;BME280;9626;52.552;13.436;2023-03-15T00:16:49;100113.38;;;1.38;100.00
18985;BME280;9626;52.552;13.436;2023-03-15T00:19:15;100116.06;;;1.44;100.00
18985;BME280;9626;52.552;13.436;2023-03-15T00:21:42;100118.66;;;1.42;100.00
18985;BME280;9626;52.552;13.436;2023-03-15T00:24:09;100119.53;;;1.46;100.00
18985;BME280;9626;52.552;13.436;2023-03-15T00:26:36;100132.47;;;1.33;100.00
18985;BME280;9626;52.552;13.436;2023-03-15T00:29:03;100129.91;;;1.35;100.00
18985;BME280;9626;52.552;13.436;2023-03-15T00:31:30;100141.22;;;1.35;100.00
18985;BME280;9626;52.552;13.436;2023-03-15T00:33:56;100142.03;;;1.33;100.00
18985;BME280;9626;52.552;13.436;2023-03-15T00:36:23;100146.34;;;1.26;100.00
18985;BME280;9626;52.552;13.436;2023-03-15T00:38:51;100141.13;;;1.29;100.00
18985;BME280;9626;52.552;13.436;2023-03-15T00:41:19;100153.34;;;1.33;100.00
18985;BME280;9626;52.552;13.436;2023-03-15T00:43:46;100160.34;;;1.38;100.00
18985;BME280;9626;52.552;13.436;2023-03-15T00:46:13;100161.22;;;1.37;100.00
18985;BME280;9626;52.552;13.436;2023-03-15T00:48:39;100161.16;;;1.32;100.00
18985;BME280;9626;52.552;13.436;2023-03-15T00:51:12;100164.56;;;1.25;100.00
18985;BME280;9626;52.552;13.436;2023-03-15T00:53:40;100175.00;;;1.22;100.00
18985;BME280;9626;52.552;13.436;2023-03-15T00:56:09;100177.59;;;1.20;100.00
18985;BME280;9626;52.552;13.436;2023-03-15T00:58:37;100172.31;;;1.17;100.00
18985;BME280;9626;52.552;13.436;2023-03-15T01:03:38;100179.19;;;1.09;100.00
18985;BME280;9626;52.552;13.436;2023-03-15T01:06:12;100186.16;;;1.10;100.00
18985;BME280;9626;52.552;13.436;2023-03-15T01:08:39;100185.28;;;1.09;100.00
18985;BME280;9626;52.552;13.436;2023-03-15T01:11:19;100192.28;;;1.13;100.00
18985;BME280;9626;52.552;13.436;2023-03-15T01:13:46;100188.84;;;1.16;100.00
18985;BME280;9626;52.552;13.436;2023-03-15T01:16:13;100192.31;;;1.15;100.00
18985;BME280;9626;52.552;13.436;2023-03-15T01:18:39;100200.06;;;1.10;100.00
18985;BME280;9626;52.552;13.436;2023-03-15T01:21:07;100202.75;;;1.15;100.00
18985;BME280;9626;52.552;13.436;2023-03-15T01:23:33;100208.78;;;1.11;100.00
18985;BME280;9626;52.552;13.436;2023-03-15T01:26:04;100217.44;;;1.10;100.00
18985;BME280;9626;52.552;13.436;2023-03-15T01:28:30;100215.69;;;1.09;100.00
18985;BME280;9626;52.552;13.436;2023-03-15T01:30:56;100214.81;;;1.05;100.00
18985;BME280;9626;52.552;13.436;2023-03-15T01:33:22;100211.38;;;1.11;100.00
18985;BME280;9626;52.552;13.436;2023-03-15T01:38:25;100227.09;;;1.17;100.00
18985;BME280;9626;52.552;13.436;2023-03-15T01:40:51;100226.97;;;1.08;100.00
18985;BME280;9626;52.552;13.436;2023-03-15T01:43:20;100220.88;;;1.06;100.00
18985;BME280;9626;52.552;13.436;2023-03-15T01:45:59;100226.91;;;0.98;100.00
18985;BME280;9626;52.552;13.436;2023-03-15T01:53:58;100226.78;;;0.91;100.00
18985;BME280;9626;52.552;13.436;2023-03-15T01:56:27;100231.97;;;0.86;100.00
18985;BME280;9626;52.552;13.436;2023-03-15T01:58:54;100231.03;;;0.84;100.00
18985;BME280;9626;52.552;13.436;2023-03-15T02:01:23;100231.03;;;0.81;100.00
18985;BME280;9626;52.552;13.436;2023-03-15T02:03:54;100244.91;;;0.80;100.00
18985;BME280;9626;52.552;13.436;2023-03-15T02:06:23;100240.59;;;0.82;100.00
18985;BME280;9626;52.552;13.436;2023-03-15T02:08:52;100238.81;;;0.78;100.00
18985;BME280;9626;52.552;13.436;2023-03-15T02:11:21;100246.56;;;0.76;100.00
18985;BME280;9626;52.552;13.436;2023-03-15T02:13:49;100244.03;;;0.79;100.00
18985;BME280;9626;52.552;13.436;2023-03-15T02:16:16;100243.19;;;0.82;100.00
18985;BME280;9626;52.552;13.436;2023-03-15T02:18:43;100250.28;;;0.92;100.00
18985;BME280;9626;52.552;13.436;2023-03-15T02:24:25;100257.25;;;0.93;100.00
18985;BME280;9626;52.552;13.436;2023-03-15T02:26:56;100249.38;;;0.90;100.00
18985;BME280;9626;52.552;13.436;2023-03-15T02:29:24;100258.06;;;0.89;100.00
18985;BME280;9626;52.552;13.436;2023-03-15T02:31:51;100264.06;;;0.82;100.00
18985;BME280;9626;52.552;13.436;2023-03-15T02:34:18;100270.97;;;0.81;100.00
18985;BME280;9626;52.552;13.436;2023-03-15T02:36:44;100271.88;;;0.82;100.00
18985;BME280;9626;52.552;13.436;2023-03-15T02:39:18;100277.91;;;0.78;100.00
18985;BME280;9626;52.552;13.436;2023-03-15T02:41:52;100269.13;;;0.73;100.00
18985;BME280;9626;52.552;13.436;2023-03-15T02:46:55;100292.47;;;0.65;100.00
18985;BME280;9626;52.552;13.436;2023-03-15T02:49:26;100285.44;;;0.59;100.00
18985;BME280;9626;52.552;13.436;2023-03-15T02:51:55;100288.91;;;0.58;100.00
18985;BME280;9626;52.552;13.436;2023-03-15T02:54:21;100300.25;;;0.60;100.00
18985;BME280;9626;52.552;13.436;2023-03-15T02:56:49;100305.34;;;0.54;100.00
18985;BME280;9626;52.552;13.436;2023-03-15T02:59:15;100308.88;;;0.58;100.00
18985;BME280;9626;52.552;13.436;2023-03-15T03:01:41;100314.00;;;0.53;100.00
18985;BME280;9626;52.552;13.436;2023-03-15T03:04:10;100314.06;;;0.56;100.00
18985;BME280;9626;52.552;13.436;2023-03-15T03:06:36;100317.53;;;0.55;100.00
18985;BME280;9626;52.552;13.436;2023-03-15T03:09:03;100319.28;;;0.56;100.00
18985;BME280;9626;52.552;13.436;2023-03-15T03:11:29;100326.16;;;0.51;100.00
18985;BME280;9626;52.552;13.436;2023-03-15T03:13:55;100317.53;;;0.55;100.00
18985;BME280;9626;52.552;13.436;2023-03-15T03:16:22;100332.34;;;0.58;100.00
18985;BME280;9626;52.552;13.436;2023-03-15T03:18:50;100330.56;;;0.55;100.00
18985;BME280;9626;52.552;13.436;2023-03-15T03:21:16;100340.06;;;0.53;100.00
18985;BME280;9626;52.552;13.436;2023-03-15T03:23:42;100334.81;;;0.50;100.00
18985;BME280;9626;52.552;13.436;2023-03-15T03:26:13;100340.19;;;0.59;100.00
18985;BME280;9626;52.552;13.436;2023-03-15T03:28:43;100340.19;;;0.59;100.00
18985;BME280;9626;52.552;13.436;2023-03-15T03:31:18;100348.03;;;0.62;100.00
18985;BME280;9626;52.552;13.436;2023-03-15T03:33:46;100348.00;;;0.61;100.00
18985;BME280;9626;52.552;13.436;2023-03-15T03:36:12;100359.38;;;0.64;100.00
18985;BME280;9626;52.552;13.436;2023-03-15T03:38:43;100354.19;;;0.67;100.00
18985;BME280;9626;52.552;13.436;2023-03-15T03:41:10;100360.31;;;0.70;100.00
18985;BME280;9626;52.552;13.436;2023-03-15T03:43:37;100355.03;;;0.66;100.00
18985;BME280;9626;52.552;13.436;2023-03-15T03:46:04;100359.41;;;0.67;100.00
18985;BME280;9626;52.552;13.436;2023-03-15T03:48:31;100370.69;;;0.68;100.00
18985;BME280;9626;52.552;13.436;2023-03-15T03:50:57;100368.06;;;0.66;100.00
18985;BME280;9626;52.552;13.436;2023-03-15T03:53:23;100362.81;;;0.63;100.00
18985;BME280;9626;52.552;13.436;2023-03-15T03:55:50;100374.00;;;0.56;100.00
18985;BME280;9626;52.552;13.436;2023-03-15T03:58:16;100371.41;;;0.56;100.00
18985;BME280;9626;52.552;13.436;2023-03-15T04:00:42;100380.88;;;0.53;100.00
18985;BME280;9626;52.552;13.436;2023-03-15T04:03:12;100377.41;;;0.50;100.00
18985;BME280;9626;52.552;13.436;2023-03-15T04:05:41;100379.91;;;0.46;100.00
18985;BME280;9626;52.552;13.436;2023-03-15T04:08:07;100383.47;;;0.51;100.00
18985;BME280;9626;52.552;13.436;2023-03-15T04:10:33;100388.56;;;0.45;100.00
18985;BME280;9626;52.552;13.436;2023-03-15T04:13:00;100389.38;;;0.42;100.00
18985;BME280;9626;52.552;13.436;2023-03-15T04:15:26;100394.69;;;0.47;100.00
18985;BME280;9626;52.552;13.436;2023-03-15T04:17:52;100397.25;;;0.44;100.00
18985;BME280;9626;52.552;13.436;2023-03-15T04:20:21;100402.41;;;0.41;100.00
18985;BME280;9626;52.552;13.436;2023-03-15T04:22:48;100399.69;;;0.35;100.00
18985;BME280;9626;52.552;13.436;2023-03-15T04:25:18;100405.72;;;0.30;100.00
18985;BME280;9626;52.552;13.436;2023-03-15T04:27:45;100416.19;;;0.35;100.00
18985;BME280;9626;52.552;13.436;2023-03-15T04:30:13;100418.13;;;0.45;100.00
18985;BME280;9626;52.552;13.436;2023-03-15T04:32:38;100407.69;;;0.44;100.00
18985;BME280;9626;52.552;13.436;2023-03-15T04:35:07;100417.97;;;0.38;100.00
18985;BME280;9626;52.552;13.436;2023-03-15T04:37:33;100414.53;;;0.39;100.00
18985;BME280;9626;52.552;13.436;2023-03-15T04:39:59;100413.69;;;0.40;100.00
18985;BME280;9626;52.552;13.436;2023-03-15T04:42:25;100412.78;;;0.38;100.00
18985;BME280;9626;52.552;13.436;2023-03-15T04:44:51;100412.06;;;0.46;100.00
18985;BME280;9626;52.552;13.436;2023-03-15T04:47:18;100412.91;;;0.44;100.00
18985;BME280;9626;52.552;13.436;2023-03-15T04:49:46;100412.91;;;0.45;100.00
18985;BME280;9626;52.552;13.436;2023-03-15T04:52:12;100410.34;;;0.48;100.00
18985;BME280;9626;52.552;13.436;2023-03-15T04:54:38;100418.97;;;0.44;100.00
18985;BME280;9626;52.552;13.436;2023-03-15T04:57:04;100422.53;;;0.49;100.00
18985;BME280;9626;52.552;13.436;2023-03-15T04:59:30;100425.91;;;0.44;100.00
18985;BME280;9626;52.552;13.436;2023-03-15T05:01:56;100440.59;;;0.39;100.00
18985;BME280;9626;52.552;13.436;2023-03-15T05:04:24;100430.22;;;0.42;100.00
18985;BME280;9626;52.552;13.436;2023-03-15T05:06:50;100444.19;;;0.47;100.00
18985;BME280;9626;52.552;13.436;2023-03-15T05:09:16;100440.75;;;0.48;100.00
18985;BME280;9626;52.552;13.436;2023-03-15T05:11:44;100449.38;;;0.44;100.00
18985;BME280;9626;52.552;13.436;2023-03-15T05:14:12;100448.44;;;0.40;100.00
18985;BME280;9626;52.552;13.436;2023-03-15T05:16:38;100457.97;;;0.40;100.00
18985;BME280;9626;52.552;13.436;2023-03-15T05:19:04;100457.97;;;0.40;100.00
18985;BME280;9626;52.552;13.436;2023-03-15T05:21:30;100458.88;;;0.42;100.00
18985;BME280;9626;52.552;13.436;2023-03-15T05:23:57;100476.28;;;0.44;100.00
18985;BME280;9626;52.552;13.436;2023-03-15T05:26:23;100474.53;;;0.45;100.00
18985;BME280;9626;52.552;13.436;2023-03-15T05:28:49;100477.16;;;0.45;100.00
18985;BME280;9626;52.552;13.436;2023-03-15T05:31:17;100483.28;;;0.47;100.00
18985;BME280;9626;52.552;13.436;2023-03-15T05:33:43;100479.84;;;0.48;100.00
18985;BME280;9626;52.552;13.436;2023-03-15T05:36:12;100490.25;;;0.48;100.00
18985;BME280;9626;52.552;13.436;2023-03-15T05:38:42;100502.41;;;0.49;100.00
18985;BME280;9626;52.552;13.436;2023-03-15T05:41:08;100498.88;;;0.44;100.00
18985;BME280;9626;52.552;13.436;2023-03-15T05:43:34;100511.06;;;0.46;100.00
18985;BME280;9626;52.552;13.436;2023-03-15T05:46:00;100508.53;;;0.49;100.00
18985;BME280;9626;52.552;13.436;2023-03-15T05:48:26;100512.03;;;0.53;100.00
18985;BME280;9626;52.552;13.436;2023-03-15T05:50:53;100517.44;;;0.62;100.00
18985;BME280;9626;52.552;13.436;2023-03-15T05:53:19;100522.69;;;0.65;100.00
18985;BME280;9626;52.552;13.436;2023-03-15T05:55:45;100523.56;;;0.64;100.00
18985;BME280;9626;52.552;13.436;2023-03-15T05:58:12;100529.66;;;0.66;100.00
18985;BME280;9626;52.552;13.436;2023-03-15T06:00:38;100535.72;;;0.65;100.00
18985;BME280;9626;52.552;13.436;2023-03-15T06:03:04;100541.91;;;0.71;100.00
18985;BME280;9626;52.552;13.436;2023-03-15T06:05:30;100536.75;;;0.74;100.00
18985;BME280;9626;52.552;13.436;2023-03-15T06:07:56;100541.88;;;0.69;100.00
18985;BME280;9626;52.552;13.436;2023-03-15T06:10:22;100555.03;;;0.75;100.00
18985;BME280;9626;52.552;13.436;2023-03-15T06:12:48;100546.47;;;0.82;100.00
18985;BME280;9626;52.552;13.436;2023-03-15T06:15:17;100558.69;;;0.85;100.00
18985;BME280;9626;52.552;13.436;2023-03-15T06:17:43;100560.50;;;0.91;100.00
18985;BME280;9626;52.552;13.436;2023-03-15T06:20:09;100565.84;;;0.97;100.00
18985;BME280;9626;52.552;13.436;2023-03-15T06:22:36;100565.91;;;1.00;100.00
18985;BME280;9626;52.552;13.436;2023-03-15T06:25:03;100580.84;;;1.10;100.00
18985;BME280;9626;52.552;13.436;2023-03-15T06:27:29;100573.19;;;1.20;100.00
18985;BME280;9626;52.552;13.436;2023-03-15T06:29:55;100577.59;;;1.25;100.00
18985;BME280;9626;52.552;13.436;2023-03-15T06:32:22;100587.25;;;1.29;100.00
18985;BME280;9626;52.552;13.436;2023-03-15T06:34:48;100589.75;;;1.23;100.00
18985;BME280;9626;52.552;13.436;2023-03-15T06:37:14;100591.31;;;1.12;100.00
18985;BME280;9626;52.552;13.436;2023-03-15T06:39:41;100608.72;;;1.13;100.00
18985;BME280;9626;52.552;13.436;2023-03-15T06:42:07;100612.03;;;1.03;100.00
18985;BME280;9626;52.552;13.436;2023-03-15T06:44:34;100603.22;;;0.97;100.00
18985;BME280;9626;52.552;13.436;2023-03-15T06:47:00;100611.09;;;1.00;100.00
18985;BME280;9626;52.552;13.436;2023-03-15T06:49:27;100617.31;;;1.09;100.00
18985;BME280;9626;52.552;13.436;2023-03-15T06:51:53;100626.06;;;1.11;100.00
18985;BME280;9626;52.552;13.436;2023-03-15T06:54:19;100632.09;;;1.07;100.00
18985;BME280;9626;52.552;13.436;2023-03-15T06:56:45;100625.16;;;1.09;100.00
18985;BME280;9626;52.552;13.436;2023-03-15T06:59:11;100635.38;;;0.98;100.00
18985;BME280;9626;52.552;13.436;2023-03-15T07:01:37;100636.38;;;1.05;100.00
18985;BME280;9626;52.552;13.436;2023-03-15T07:04:03;100636.41;;;1.06;100.00
18985;BME280;9626;52.552;13.436;2023-03-15T07:06:29;100649.41;;;1.05;100.00
18985;BME280;9626;52.552;13.436;2023-03-15T07:08:56;100653.97;;;1.15;100.00
18985;BME280;9626;52.552;13.436;2023-03-15T07:11:22;100641.94;;;1.23;100.00
18985;BME280;9626;52.552;13.436;2023-03-15T07:13:48;100648.88;;;1.23;100.00
18985;BME280;9626;52.552;13.436;2023-03-15T07:16:14;100643.03;;;1.38;100.00
18985;BME280;9626;52.552;13.436;2023-03-15T07:18:41;100650.19;;;1.48;100.00
18985;BME280;9626;52.552;13.436;2023-03-15T07:21:07;100651.22;;;1.59;100.00
18985;BME280;9626;52.552;13.436;2023-03-15T07:23:33;100652.00;;;1.52;100.00
18985;BME280;9626;52.552;13.436;2023-03-15T07:25:59;100643.38;;;1.58;100.00
18985;BME280;9626;52.552;13.436;2023-03-15T07:28:26;100651.22;;;1.59;100.00
18985;BME280;9626;52.552;13.436;2023-03-15T07:30:57;100656.41;;;1.55;100.00
18985;BME280;9626;52.552;13.436;2023-03-15T07:33:24;100658.88;;;1.47;100.00
18985;BME280;9626;52.552;13.436;2023-03-15T07:35:52;100654.56;;;1.49;100.00
18985;BME280;9626;52.552;13.436;2023-03-15T07:38:19;100667.63;;;1.49;100.00
18985;BME280;9626;52.552;13.436;2023-03-15T07:40:45;100663.41;;;1.57;100.00
18985;BME280;9626;52.552;13.436;2023-03-15T07:43:11;100672.19;;;1.62;100.00
18985;BME280;9626;52.552;13.436;2023-03-15T07:45:37;100673.13;;;1.67;100.00
18985;BME280;9626;52.552;13.436;2023-03-15T07:48:04;100676.69;;;1.73;100.00
18985;BME280;9626;52.552;13.436;2023-03-15T07:50:30;100679.41;;;1.79;100.00
18985;BME280;9626;52.552;13.436;2023-03-15T07:52:57;100677.56;;;1.73;100.00
18985;BME280;9626;52.552;13.436;2023-03-15T07:55:23;100679.34;;;1.76;100.00
18985;BME280;9626;52.552;13.436;2023-03-15T07:57:50;100685.47;;;1.76;100.00
18985;BME280;9626;52.552;13.436;2023-03-15T08:00:17;100695.94;;;1.79;100.00
18985;BME280;9626;52.552;13.436;2023-03-15T08:02:43;100697.63;;;1.76;100.00
18985;BME280;9626;52.552;13.436;2023-03-15T08:05:09;100695.84;;;1.73;100.00
18985;BME280;9626;52.552;13.436;2023-03-15T08:07:35;100702.00;;;1.77;100.00
18985;BME280;9626;52.552;13.436;2023-03-15T08:10:03;100700.19;;;1.73;100.00
18985;BME280;9626;52.552;13.436;2023-03-15T08:12:31;100701.91;;;1.71;100.00
18985;BME280;9626;52.552;13.436;2023-03-15T08:14:58;100715.00;;;1.74;100.00
18985;BME280;9626;52.552;13.436;2023-03-15T08:17:24;100715.91;;;1.76;100.00
18985;BME280;9626;52.552;13.436;2023-03-15T08:19:50;100715.97;;;1.79;100.00
18985;BME280;9626;52.552;13.436;2023-03-15T08:22:16;100716.06;;;1.85;100.00
18985;BME280;9626;52.552;13.436;2023-03-15T08:24:42;100711.00;;;1.94;100.00
18985;BME280;9626;52.552;13.436;2023-03-15T08:27:10;100718.94;;;2.00;100.00
18985;BME280;9626;52.552;13.436;2023-03-15T08:29:36;100720.56;;;1.94;100.00
18985;BME280;9626;52.552;13.436;2023-03-15T08:32:04;100729.25;;;1.93;100.00
18985;BME280;9626;52.552;13.436;2023-03-15T08:34:32;100726.69;;;1.97;100.00
18985;BME280;9626;52.552;13.436;2023-03-15T08:36:59;100729.38;;;2.00;100.00
18985;BME280;9626;52.552;13.436;2023-03-15T08:39:26;100733.84;;;2.08;100.00
18985;BME280;9626;52.552;13.436;2023-03-15T08:41:52;100738.34;;;2.19;100.00
18985;BME280;9626;52.552;13.436;2023-03-15T08:44:18;100732.28;;;2.19;100.00
18985;BME280;9626;52.552;13.436;2023-03-15T08:46:44;100744.53;;;2.23;100.00
18985;BME280;9626;52.552;13.436;2023-03-15T08:49:10;100745.28;;;2.16;100.00
18985;BME280;9626;52.552;13.436;2023-03-15T08:51:36;100735.69;;;2.15;100.00
18985;BME280;9626;52.552;13.436;2023-03-15T08:54:04;100752.22;;;2.15;100.00
18985;BME280;9626;52.552;13.436;2023-03-15T08:56:31;100755.88;;;2.24;100.00
18985;BME280;9626;52.552;13.436;2023-03-15T08:58:58;100755.88;;;2.24;100.00
18985;BME280;9626;52.552;13.436;2023-03-15T09:01:24;100762.78;;;2.20;100.00
18985;BME280;9626;52.552;13.436;2023-03-15T09:03:50;100760.88;;;2.11;100.00
18985;BME280;9626;52.552;13.436;2023-03-15T09:06:16;100764.38;;;2.12;100.00
18985;BME280;9626;52.552;13.436;2023-03-15T09:08:42;100773.19;;;2.17;100.00
18985;BME280;9626;52.552;13.436;2023-03-15T09:11:08;100777.56;;;2.19;100.00
18985;BME280;9626;52.552;13.436;2023-03-15T09:13:35;100776.69;;;2.19;100.00
18985;BME280;9626;52.552;13.436;2023-03-15T09:16:01;100781.03;;;2.17;100.00
18985;BME280;9626;52.552;13.436;2023-03-15T09:18:29;100791.53;;;2.20;100.00
18985;BME280;9626;52.552;13.436;2023-03-15T09:20:55;100789.88;;;2.25;100.00
18985;BME280;9626;52.552;13.436;2023-03-15T09:23:21;100793.56;;;2.40;100.00
18985;BME280;9626;52.552;13.436;2023-03-15T09:25:48;100795.47;;;2.50;100.00
18985;BME280;9626;52.552;13.436;2023-03-15T09:28:14;100801.72;;;2.60;100.00
18985;BME280;9626;52.552;13.436;2023-03-15T09:30:40;100806.88;;;2.55;100.00
18985;BME280;9626;52.552;13.436;2023-03-15T09:33:09;100811.94;;;2.44;100.00
18985;BME280;9626;52.552;13.436;2023-03-15T09:35:40;100807.53;;;2.40;100.00
18985;BME280;9626;52.552;13.436;2023-03-15T09:38:06;100816.47;;;2.56;100.00
18985;BME280;9626;52.552;13.436;2023-03-15T09:40:38;100819.25;;;2.67;100.00
18985;BME280;9626;52.552;13.436;2023-03-15T09:48:23;100831.81;;;2.94;100.00
18985;BME280;9626;52.552;13.436;2023-03-15T09:51:03;100832.09;;;3.14;100.00
18985;BME280;9626;52.552;13.436;2023-03-15T09:53:42;100831.88;;;3.69;100.00
18985;BME280;9626;52.552;13.436;2023-03-15T09:56:23;100835.63;;;3.93;100.00
18985;BME280;9626;52.552;13.436;2023-03-15T09:58:53;100842.69;;;4.00;100.00
18985;BME280;9626;52.552;13.436;2023-03-15T10:01:45;100843.38;;;3.82;100.00
18985;BME280;9626;52.552;13.436;2023-03-15T10:04:26;100848.50;;;3.71;100.00
18985;BME280;9626;52.552;13.436;2023-03-15T10:06:55;100851.91;;;3.63;100.00
18985;BME280;9626;52.552;13.436;2023-03-15T10:09:24;100859.91;;;3.75;100.00
18985;BME280;9626;52.552;13.436;2023-03-15T10:12:04;100854.53;;;3.63;100.00
18985;BME280;9626;52.552;13.436;2023-03-15T10:14:57;100854.69;;;3.80;100.00
18985;BME280;9626;52.552;13.436;2023-03-15T10:17:48;100855.16;;;4.29;100.00
18985;BME280;9626;52.552;13.436;2023-03-15T10:20:24;100855.69;;;5.00;100.00
18985;BME280;9626;52.552;13.436;2023-03-15T10:23:27;100854.06;;;5.21;87.91
18985;BME280;9626;52.552;13.436;2023-03-15T10:25:57;100862.28;;;6.15;76.34
18985;BME280;9626;52.552;13.436;2023-03-15T10:28:27;100857.91;;;6.09;73.63
18985;BME280;9626;52.552;13.436;2023-03-15T10:30:57;100854.31;;;5.92;73.34
18985;BME280;9626;52.552;13.436;2023-03-15T10:33:32;100865.78;;;6.17;70.74
18985;BME280;9626;52.552;13.436;2023-03-15T10:36:00;100859.66;;;6.41;69.68
18985;BME280;9626;52.552;13.436;2023-03-15T10:38:27;100868.25;;;5.72;75.36
18985;BME280;9626;52.552;13.436;2023-03-15T10:40:55;100869.13;;;5.61;78.25
18985;BME280;9626;52.552;13.436;2023-03-15T10:43:26;100870.00;;;5.64;75.58
18985;BME280;9626;52.552;13.436;2023-03-15T10:46:01;100870.19;;;6.45;73.49
18985;BME280;9626;52.552;13.436;2023-03-15T10:48:29;100883.28;;;7.11;67.70
18985;BME280;9626;52.552;13.436;2023-03-15T10:50:56;100883.19;;;7.37;61.10
18985;BME280;9626;52.552;13.436;2023-03-15T10:53:25;100876.88;;;7.82;60.26
18985;BME280;9626;52.552;13.436;2023-03-15T10:56:05;100870.13;;;8.69;55.58
18985;BME280;9626;52.552;13.436;2023-03-15T10:58:40;100878.19;;;8.54;55.15
18985;BME280;9626;52.552;13.436;2023-03-15T11:01:12;100877.97;;;7.16;60.26
18985;BME280;9626;52.552;13.436;2023-03-15T11:03:59;100876.25;;;5.97;66.79
18985;BME280;9626;52.552;13.436;2023-03-15T11:06:27;100882.16;;;5.47;71.36
18985;BME280;9626;52.552;13.436;2023-03-15T11:09:06;100881.13;;;5.15;75.25
18985;BME280;9626;52.552;13.436;2023-03-15T11:14:19;100878.03;;;6.23;68.33
18985;BME280;9626;52.552;13.436;2023-03-15T11:16:48;100882.44;;;6.33;64.78
18985;BME280;9626;52.552;13.436;2023-03-15T11:19:19;100882.47;;;6.46;65.04
18985;BME280;9626;52.552;13.436;2023-03-15T11:21:48;100880.69;;;6.20;66.13
18985;BME280;9626;52.552;13.436;2023-03-15T11:24:23;100880.72;;;6.40;64.47
18985;BME280;9626;52.552;13.436;2023-03-15T11:26:51;100879.84;;;6.66;62.56
18985;BME280;9626;52.552;13.436;2023-03-15T11:29:34;100880.72;;;6.54;60.94
18985;BME280;9626;52.552;13.436;2023-03-15T11:32:31;100884.16;;;6.03;64.24
18985;BME280;9626;52.552;13.436;2023-03-15T11:35:27;100891.97;;;5.96;65.66
18985;BME280;9626;52.552;13.436;2023-03-15T11:38:00;100889.31;;;5.75;66.26
18985;BME280;9626;52.552;13.436;2023-03-15T11:40:32;100878.72;;;5.51;67.45
18985;BME280;9626;52.552;13.436;2023-03-15T11:43:25;100877.13;;;6.02;66.90
18985;BME280;9626;52.552;13.436;2023-03-15T11:45:56;100884.94;;;7.40;61.91
18985;BME280;9626;52.552;13.436;2023-03-15T11:48:40;100876.75;;;8.00;58.07
18985;BME280;9626;52.552;13.436;2023-03-15T11:51:10;100887.16;;;8.22;55.99
18985;BME280;9626;52.552;13.436;2023-03-15T11:54:07;100892.78;;;7.60;55.80
18985;BME280;9626;52.552;13.436;2023-03-15T11:56:54;100895.59;;;7.09;57.92
18985;BME280;9626;52.552;13.436;2023-03-15T11:59:24;100893.84;;;6.58;58.91
18985;BME280;9626;52.552;13.436;2023-03-15T12:04:41;100875.38;;;8.72;54.58
18985;BME280;9626;52.552;13.436;2023-03-15T12:09:54;100881.19;;;9.08;51.66
18985;BME280;9626;52.552;13.436;2023-03-15T12:20:17;100887.53;;;7.58;58.92
18985;BME280;9626;52.552;13.436;2023-03-15T12:22:50;100879.53;;;8.96;52.66
18985;BME280;9626;52.552;13.436;2023-03-15T12:25:33;100886.38;;;9.16;49.48
18985;BME280;9626;52.552;13.436;2023-03-15T12:28:04;100893.22;;;9.37;49.27
18985;BME280;9626;52.552;13.436;2023-03-15T12:30:41;100889.78;;;9.97;48.84
18985;BME280;9626;52.552;13.436;2023-03-15T12:33:14;100889.69;;;10.64;47.22
18985;BME280;9626;52.552;13.436;2023-03-15T12:35:42;100894.34;;;11.03;46.57
18985;BME280;9626;52.552;13.436;2023-03-15T12:38:19;100892.34;;;11.14;45.84
18985;BME280;9626;52.552;13.436;2023-03-15T12:40:51;100895.19;;;11.04;45.01
18985;BME280;9626;52.552;13.436;2023-03-15T12:43:41;100895.41;;;11.38;44.65
18985;BME280;9626;52.552;13.436;2023-03-15T12:54:19;100900.31;;;10.04;44.59
18985;BME280;9626;52.552;13.436;2023-03-15T12:56:49;100894.91;;;9.43;45.69
18985;BME280;9626;52.552;13.436;2023-03-15T12:59:21;100900.16;;;9.44;45.51
18985;BME280;9626;52.552;13.436;2023-03-15T13:01:50;100896.72;;;10.67;43.33
18985;BME280;9626;52.552;13.436;2023-03-15T13:04:16;100901.78;;;10.23;43.92
18985;BME280;9626;52.552;13.436;2023-03-15T13:12:14;100901.47;;;10.46;42.97
18985;BME280;9626;52.552;13.436;2023-03-15T13:15:02;100898.47;;;10.68;42.97
18985;BME280;9626;52.552;13.436;2023-03-15T13:17:47;100884.53;;;10.57;41.42
18985;BME280;9626;52.552;13.436;2023-03-15T13:23:27;100901.03;;;9.43;41.77
18985;BME280;9626;52.552;13.436;2023-03-15T13:29:00;100896.97;;;9.18;41.25
18985;BME280;9626;52.552;13.436;2023-03-15T13:31:32;100899.75;;;9.78;38.84
18985;BME280;9626;52.552;13.436;2023-03-15T13:34:18;100902.47;;;10.39;37.94
18985;BME280;9626;52.552;13.436;2023-03-15T13:36:52;100903.69;;;9.46;40.09
18985;BME280;9626;52.552;13.436;2023-03-15T13:39:25;100911.28;;;8.89;41.89
18985;BME280;9626;52.552;13.436;2023-03-15T13:44:27;100923.44;;;7.79;45.22
18985;BME280;9626;52.552;13.436;2023-03-15T13:46:57;100936.81;;;7.07;50.47
18985;BME280;9626;52.552;13.436;2023-03-15T13:49:28;100947.38;;;6.74;56.42
18985;BME280;9626;52.552;13.436;2023-03-15T13:51:55;100971.88;;;6.36;69.05
18985;BME280;9626;52.552;13.436;2023-03-15T13:54:25;100976.09;;;5.89;86.86
18985;BME280;9626;52.552;13.436;2023-03-15T13:59:49;100971.84;;;6.19;91.90
18985;BME280;9626;52.552;13.436;2023-03-15T14:02:24;100978.94;;;6.99;85.33
18985;BME280;9626;52.552;13.436;2023-03-15T14:05:02;100977.97;;;7.60;84.81
18985;BME280;9626;52.552;13.436;2023-03-15T14:07:37;100980.44;;;8.08;71.27